createdAt,value
2018-09-14T00:00:47.688Z,7.17
2018-09-14T00:03:21.957Z,7.10
2018-09-14T00:05:56.203Z,6.40
2018-09-14T00:08:30.521Z,6.50
2018-09-14T00:11:04.874Z,8.23
2018-09-14T00:13:39.239Z,8.23
2018-09-14T00:16:13.586Z,7.03
2018-09-14T00:18:47.926Z,7.53
2018-09-14T00:21:22.199Z,7.50
2018-09-14T00:23:56.470Z,8.00
2018-09-14T00:26:30.634Z,10.00
2018-09-14T00:29:04.851Z,8.63
2018-09-14T00:31:39.133Z,9.33
2018-09-14T00:34:13.326Z,9.07
2018-09-14T00:36:47.760Z,8.60
2018-09-14T00:39:22.098Z,8.67
2018-09-14T00:41:56.455Z,8.33
2018-09-14T00:44:30.747Z,9.57
2018-09-14T00:47:05.364Z,9.77
2018-09-14T00:49:39.682Z,8.20
2018-09-14T00:52:14.105Z,8.80
2018-09-14T00:54:48.287Z,8.90
2018-09-14T00:57:22.666Z,9.83
2018-09-14T00:59:56.942Z,10.33
2018-09-14T01:02:31.222Z,9.20
2018-09-14T01:05:05.490Z,9.10
2018-09-14T01:07:39.828Z,9.10
2018-09-14T01:10:14.159Z,9.43
2018-09-14T01:12:48.482Z,9.17
2018-09-14T01:15:22.822Z,8.70
2018-09-14T01:17:57.119Z,8.37
2018-09-14T01:20:31.430Z,7.30
2018-09-14T01:23:05.721Z,7.10
2018-09-14T01:25:39.955Z,7.27
2018-09-14T01:28:14.263Z,6.90
2018-09-14T01:30:48.506Z,6.50
2018-09-14T01:33:22.715Z,7.03
2018-09-14T01:36:02.561Z,7.17
2018-09-14T01:38:36.766Z,6.37
2018-09-14T01:41:11.034Z,6.57
2018-09-14T01:43:45.377Z,6.67
2018-09-14T01:46:19.574Z,6.57
2018-09-14T01:48:53.956Z,6.10
2018-09-14T01:51:28.290Z,6.43
2018-09-14T01:54:02.670Z,5.87
2018-09-14T01:56:36.940Z,6.50
2018-09-14T01:59:11.256Z,6.33
2018-09-14T02:01:45.613Z,7.33
2018-09-14T02:04:19.908Z,6.37
2018-09-14T02:06:54.133Z,6.50
2018-09-14T02:09:28.523Z,7.00
2018-09-14T02:12:02.859Z,6.60
2018-09-14T02:14:37.291Z,5.97
2018-09-14T02:17:11.730Z,5.93
2018-09-14T02:19:45.958Z,6.40
2018-09-14T02:22:20.157Z,6.33
2018-09-14T02:24:54.389Z,5.17
2018-09-14T02:27:28.799Z,6.00
2018-09-14T02:30:03.039Z,5.83
2018-09-14T02:32:37.662Z,8.10
2018-09-14T02:35:11.864Z,7.13
2018-09-14T02:59:02.522Z,6.93
2018-09-14T03:01:36.806Z,8.37
2018-09-14T03:04:11.133Z,8.27
2018-09-14T03:06:45.463Z,7.60
2018-09-14T03:09:19.802Z,7.67
2018-09-14T03:11:54.181Z,7.33
2018-09-14T03:14:28.378Z,6.63
2018-09-14T03:17:02.679Z,6.77
2018-09-14T03:19:36.976Z,6.67
2018-09-14T03:22:11.334Z,6.57
2018-09-14T03:24:45.546Z,6.40
2018-09-14T03:27:19.774Z,6.10
2018-09-14T03:29:54.022Z,6.13
2018-09-14T03:32:28.327Z,6.50
2018-09-14T03:35:02.530Z,6.40
2018-09-14T03:37:36.819Z,6.63
2018-09-14T03:40:11.241Z,5.70
2018-09-14T03:42:45.519Z,6.50
2018-09-14T03:45:19.846Z,6.17
2018-09-14T03:47:54.093Z,6.20
2018-09-14T03:50:28.258Z,5.60
2018-09-14T03:53:02.628Z,6.03
2018-09-14T03:55:36.925Z,6.00
2018-09-14T03:58:11.275Z,5.40
2018-09-14T04:00:45.619Z,6.10
2018-09-14T04:03:20.023Z,5.50
2018-09-14T04:05:54.345Z,6.03
2018-09-14T04:08:28.682Z,6.60
2018-09-14T04:11:03.173Z,6.63
2018-09-14T04:13:37.531Z,6.47
2018-09-14T04:16:12.029Z,8.10
2018-09-14T04:18:54.125Z,8.20
2018-09-14T04:21:28.686Z,6.97
2018-09-14T04:24:03.214Z,6.80
2018-09-14T04:26:37.526Z,6.07
2018-09-14T04:29:11.805Z,6.80
2018-09-14T04:31:46.179Z,6.57
2018-09-14T04:34:20.530Z,7.03
2018-09-14T04:36:54.735Z,7.10
2018-09-14T04:39:28.982Z,8.73
2018-09-14T04:42:03.308Z,10.07
2018-09-14T04:44:37.665Z,13.30
2018-09-14T04:47:11.943Z,9.07
2018-09-14T04:49:46.238Z,9.40
2018-09-14T04:52:20.659Z,7.70
2018-09-14T04:54:55.093Z,9.83
2018-09-14T04:57:29.513Z,7.70
2018-09-14T05:00:03.941Z,9.87
2018-09-14T05:02:38.354Z,9.50
2018-09-14T05:05:12.653Z,10.87
2018-09-14T05:07:46.901Z,9.03
2018-09-14T05:10:21.178Z,9.63
2018-09-14T05:12:55.447Z,10.43
2018-09-14T05:15:29.977Z,10.03
2018-09-14T05:18:05.218Z,11.10
2018-09-14T05:20:39.398Z,11.30
2018-09-14T05:23:13.566Z,9.37
2018-09-14T05:25:47.850Z,10.43
2018-09-14T05:28:22.079Z,13.43
2018-09-14T05:30:56.298Z,10.47
2018-09-14T05:33:30.634Z,16.30
2018-09-14T05:36:05.073Z,18.83
2018-09-14T05:38:39.269Z,16.87
2018-09-14T05:41:13.590Z,12.90
2018-09-14T05:43:47.749Z,15.13
2018-09-14T05:46:22.253Z,15.90
2018-09-14T05:48:56.652Z,16.20
2018-09-14T05:51:30.895Z,13.10
2018-09-14T05:54:05.339Z,18.20
2018-09-14T05:56:39.642Z,18.00
2018-09-14T05:59:14.012Z,14.63
2018-09-14T06:01:48.282Z,14.60
2018-09-14T06:04:22.591Z,14.27
2018-09-14T06:06:56.840Z,14.73
2018-09-14T06:09:31.001Z,13.40
2018-09-14T06:12:05.451Z,15.53
2018-09-14T06:14:39.607Z,14.83
2018-09-14T06:17:13.930Z,12.57
2018-09-14T06:19:48.254Z,13.10
2018-09-14T06:22:22.713Z,13.73
2018-09-14T06:24:56.983Z,12.03
2018-09-14T06:27:31.478Z,13.57
2018-09-14T06:30:05.838Z,15.30
2018-09-14T06:32:40.129Z,12.83
2018-09-14T06:35:14.450Z,12.87
2018-09-14T06:37:48.950Z,12.20
2018-09-14T06:40:23.119Z,15.53
2018-09-14T06:42:57.431Z,13.77
2018-09-14T06:45:31.838Z,12.80
2018-09-14T06:48:06.035Z,13.23
2018-09-14T06:50:40.254Z,12.87
2018-09-14T06:53:14.618Z,12.50
2018-09-14T06:55:48.909Z,13.03
2018-09-14T06:58:23.326Z,12.60
2018-09-14T07:00:57.547Z,12.87
2018-09-14T07:03:31.846Z,10.90
2018-09-14T07:06:06.093Z,12.30
2018-09-14T07:08:40.243Z,10.33
2018-09-14T07:11:14.650Z,12.20
2018-09-14T07:13:49.002Z,12.03
2018-09-14T07:16:23.223Z,10.93
2018-09-14T07:18:57.542Z,12.77
2018-09-14T07:21:31.842Z,12.80
2018-09-14T07:24:06.194Z,11.83
2018-09-14T07:26:40.514Z,12.10
2018-09-14T07:29:15.017Z,13.93
2018-09-14T07:31:49.244Z,14.23
2018-09-14T07:34:23.475Z,14.37
2018-09-14T07:36:57.835Z,13.70
2018-09-14T07:39:32.166Z,14.77
2018-09-14T07:42:06.426Z,14.50
2018-09-14T07:44:40.814Z,15.47
2018-09-14T07:47:15.066Z,16.43
2018-09-14T07:49:49.230Z,17.30
2018-09-14T07:52:27.269Z,15.07
2018-09-14T07:55:01.863Z,15.77
2018-09-14T07:57:36.094Z,13.90
2018-09-14T08:00:10.413Z,16.67
2018-09-14T08:02:44.845Z,15.20
2018-09-14T08:05:19.087Z,16.40
2018-09-14T08:07:53.413Z,17.77
2018-09-14T08:10:27.642Z,16.47
2018-09-14T08:13:01.996Z,16.60
2018-09-14T08:15:36.349Z,16.13
2018-09-14T08:18:10.693Z,16.80
2018-09-14T08:20:44.926Z,17.13
2018-09-14T08:23:19.351Z,15.87
2018-09-14T08:25:53.638Z,17.80
2018-09-14T08:28:28.138Z,17.57
2018-09-14T08:31:02.600Z,18.53
2018-09-14T08:33:36.914Z,18.37
2018-09-14T08:36:11.187Z,19.50
2018-09-14T08:38:45.394Z,18.63
2018-09-14T08:41:19.811Z,19.47
2018-09-14T08:43:54.123Z,18.30
2018-09-14T08:46:28.445Z,16.93
2018-09-14T08:49:03.086Z,18.70
2018-09-14T08:51:37.455Z,19.57
2018-09-14T08:54:11.790Z,18.93
2018-09-14T08:56:45.965Z,18.80
2018-09-14T08:59:20.165Z,19.47
2018-09-14T09:01:54.606Z,19.10
2018-09-14T09:04:28.912Z,19.70
2018-09-14T09:07:03.440Z,17.63
2018-09-14T09:09:37.830Z,16.57
2018-09-14T09:12:12.153Z,17.30
2018-09-14T09:14:46.527Z,17.83
2018-09-14T09:17:20.806Z,17.50
2018-09-14T09:19:55.152Z,18.53
2018-09-14T09:22:29.346Z,16.83
2018-09-14T09:25:03.840Z,16.60
2018-09-14T09:27:38.158Z,16.13
2018-09-14T09:30:16.375Z,15.30
2018-09-14T09:32:50.646Z,16.03
2018-09-14T09:35:24.951Z,15.07
2018-09-14T09:37:59.174Z,15.57
2018-09-14T09:40:33.607Z,15.77
2018-09-14T09:43:07.904Z,15.70
2018-09-14T09:45:42.526Z,15.40
2018-09-14T09:48:16.670Z,15.47
2018-09-14T09:50:50.989Z,14.63
2018-09-14T09:53:25.305Z,13.67
2018-09-14T09:55:59.522Z,14.67
2018-09-14T09:58:33.840Z,13.37
2018-09-14T10:01:13.724Z,12.23
2018-09-14T10:03:53.111Z,13.17
2018-09-14T10:06:27.575Z,12.63
2018-09-14T10:09:01.821Z,12.13
2018-09-14T10:11:36.310Z,11.73
2018-09-14T10:14:10.577Z,12.47
2018-09-14T10:16:44.987Z,11.60
2018-09-14T10:19:19.414Z,12.37
2018-09-14T10:21:53.687Z,11.93
2018-09-14T10:24:28.028Z,12.27
2018-09-14T10:27:02.359Z,11.67
2018-09-14T10:29:36.543Z,12.53
2018-09-14T10:32:10.951Z,11.47
2018-09-14T10:34:45.229Z,12.37
2018-09-14T10:37:19.542Z,12.73
2018-09-14T10:39:53.946Z,12.60
2018-09-14T10:42:28.259Z,13.80
2018-09-14T10:45:02.676Z,14.27
2018-09-14T10:47:36.833Z,14.40
2018-09-14T10:50:11.294Z,13.73
2018-09-14T10:52:45.858Z,14.40
2018-09-14T10:55:20.222Z,14.00
2018-09-14T10:57:54.558Z,14.40
2018-09-14T11:00:28.966Z,14.60
2018-09-14T11:03:03.211Z,14.23
2018-09-14T11:05:37.544Z,14.17
2018-09-14T11:08:11.872Z,12.87
2018-09-14T11:10:46.294Z,13.97
2018-09-14T11:13:20.607Z,12.80
2018-09-14T11:15:54.929Z,13.77
2018-09-14T11:18:29.254Z,11.73
2018-09-14T11:21:03.606Z,10.77
2018-09-14T11:23:37.941Z,11.43
2018-09-14T11:26:12.284Z,12.33
2018-09-14T11:28:46.794Z,11.83
2018-09-14T11:31:25.375Z,11.33
2018-09-14T11:33:59.809Z,10.43
2018-09-14T11:36:34.304Z,7.97
2018-09-14T11:39:09.408Z,7.40
2018-09-14T11:41:43.626Z,7.93
2018-09-14T11:44:17.902Z,6.77
2018-09-14T11:46:52.073Z,5.33
2018-09-14T11:49:26.437Z,4.87
2018-09-14T11:52:01.154Z,4.60
2018-09-14T11:54:35.518Z,4.87
2018-09-14T11:57:09.821Z,4.93
2018-09-14T11:59:44.214Z,3.60
2018-09-14T12:02:18.545Z,3.50
2018-09-14T12:04:53.854Z,5.10
2018-09-14T12:07:28.147Z,5.00
2018-09-14T12:11:14.064Z,5.00
2018-09-14T12:13:48.585Z,5.50
2018-09-14T12:16:22.818Z,5.63
2018-09-14T12:18:57.050Z,4.77
2018-09-14T12:21:31.522Z,4.87
2018-09-14T12:24:05.915Z,5.13
2018-09-14T12:26:40.337Z,4.23
2018-09-14T12:29:14.707Z,3.77
2018-09-14T12:31:48.974Z,4.60
2018-09-14T12:34:23.294Z,4.07
2018-09-14T12:36:57.572Z,3.60
2018-09-14T12:39:31.734Z,3.80
2018-09-14T12:42:06.177Z,3.40
2018-09-14T12:44:40.435Z,4.60
2018-09-14T12:47:14.651Z,3.70
2018-09-14T12:49:49.069Z,3.60
2018-09-14T12:52:23.323Z,4.23
2018-09-14T12:54:57.650Z,3.93
2018-09-14T12:57:31.945Z,7.30
2018-09-14T13:00:07.125Z,6.93
2018-09-14T13:02:41.378Z,7.13
2018-09-14T13:05:16.168Z,8.83
2018-09-14T13:07:50.376Z,8.07
2018-09-14T13:10:24.763Z,7.30
2018-09-14T13:12:59.183Z,7.40
2018-09-14T13:15:33.441Z,8.57
2018-09-14T13:18:07.804Z,8.73
2018-09-14T13:20:42.115Z,8.73
2018-09-14T13:23:16.481Z,9.50
2018-09-14T13:25:50.778Z,8.30
2018-09-14T13:28:25.119Z,9.57
2018-09-14T13:30:59.566Z,7.93
2018-09-14T13:33:33.911Z,8.00
2018-09-14T13:36:08.247Z,7.57
2018-09-14T13:38:42.568Z,8.63
2018-09-14T13:41:16.897Z,7.60
2018-09-14T13:43:51.209Z,7.47
2018-09-14T13:46:25.581Z,8.23
2018-09-14T13:48:59.882Z,7.33
2018-09-14T13:51:34.455Z,8.10
2018-09-14T13:54:08.627Z,7.77
2018-09-14T13:56:42.923Z,7.23
2018-09-14T13:59:17.270Z,8.37
2018-09-14T14:01:51.582Z,7.47
2018-09-14T14:04:25.821Z,6.90
2018-09-14T14:07:00.290Z,8.40
2018-09-14T14:09:34.638Z,7.50
2018-09-14T14:12:09.105Z,7.63
2018-09-14T14:14:43.215Z,7.37
2018-09-14T14:17:17.789Z,7.20
2018-09-14T14:19:51.978Z,7.87
2018-09-14T14:22:26.311Z,6.80
2018-09-14T14:25:00.698Z,7.73
2018-09-14T14:27:35.015Z,8.17
2018-09-14T14:30:09.330Z,8.10
2018-09-14T14:32:43.651Z,7.67
2018-09-14T14:35:18.042Z,7.67
2018-09-14T14:37:52.202Z,6.90
2018-09-14T14:40:26.515Z,6.57
2018-09-14T14:43:00.887Z,6.70
2018-09-14T14:45:35.064Z,7.30
2018-09-14T14:48:09.371Z,5.97
2018-09-14T14:50:43.664Z,6.70
2018-09-14T14:53:17.946Z,6.57
2018-09-14T14:55:52.184Z,7.20
2018-09-14T14:58:26.455Z,6.50
2018-09-14T15:01:00.615Z,6.30
2018-09-14T15:03:34.915Z,5.93
2018-09-14T15:06:09.111Z,6.07
2018-09-14T15:08:43.449Z,5.47
2018-09-14T15:11:17.732Z,6.83
2018-09-14T15:13:52.029Z,6.37
2018-09-14T15:16:26.317Z,6.50
2018-09-14T15:19:00.801Z,5.63
2018-09-14T15:21:35.447Z,6.40
2018-09-14T15:24:09.627Z,5.47
2018-09-14T15:26:43.905Z,6.20
2018-09-14T15:29:18.241Z,5.77
2018-09-14T15:31:52.406Z,6.23
2018-09-14T15:34:26.824Z,5.80
2018-09-14T15:37:01.071Z,6.13
2018-09-14T15:39:35.526Z,6.07
2018-09-14T15:42:09.829Z,6.43
2018-09-14T15:44:44.180Z,6.27
2018-09-14T15:47:18.420Z,6.60
2018-09-14T15:49:52.875Z,6.13
2018-09-14T15:52:27.206Z,6.67
2018-09-14T15:55:01.418Z,6.63
2018-09-14T15:57:35.831Z,7.07
2018-09-14T16:00:10.002Z,6.80
2018-09-14T16:02:44.256Z,6.90
2018-09-14T16:05:18.554Z,6.40
2018-09-14T16:07:52.713Z,6.30
2018-09-14T16:10:27.031Z,5.87
2018-09-14T16:13:01.510Z,7.23
2018-09-14T16:15:35.744Z,6.53
2018-09-14T16:18:10.026Z,7.53
2018-09-14T16:20:44.326Z,7.30
2018-09-14T16:23:18.614Z,6.60
2018-09-14T16:25:52.909Z,6.63
2018-09-14T16:28:27.165Z,6.93
2018-09-14T16:31:01.489Z,7.13
2018-09-14T16:33:35.749Z,7.73
2018-09-14T16:36:10.065Z,7.13
2018-09-14T16:38:44.394Z,7.17
2018-09-14T16:41:18.735Z,7.33
2018-09-14T16:43:53.069Z,6.93
2018-09-14T16:46:27.486Z,7.43
2018-09-14T16:49:01.836Z,7.37
2018-09-14T16:51:36.255Z,7.50
2018-09-14T16:54:10.478Z,6.93
2018-09-14T16:56:44.650Z,7.93
2018-09-14T16:59:18.994Z,6.73
2018-09-14T17:01:53.271Z,8.43
2018-09-14T17:04:27.638Z,6.90
2018-09-14T17:07:02.022Z,6.70
2018-09-14T17:09:36.408Z,6.17
2018-09-14T17:12:10.864Z,6.77
2018-09-14T17:14:45.190Z,5.87
2018-09-14T17:17:19.513Z,5.77
2018-09-14T17:19:53.853Z,5.90
2018-09-14T17:22:29.065Z,6.23
2018-09-14T17:25:03.282Z,6.10
2018-09-14T17:27:37.703Z,5.80
2018-09-14T17:30:11.895Z,5.63
2018-09-14T17:32:46.185Z,5.10
2018-09-14T17:35:20.507Z,6.20
2018-09-14T17:37:54.673Z,5.57
2018-09-14T17:40:29.003Z,6.70
2018-09-14T17:43:03.253Z,7.17
2018-09-14T17:45:37.564Z,5.90
2018-09-14T17:48:11.909Z,6.13
2018-09-14T17:50:46.093Z,6.20
2018-09-14T17:53:20.251Z,6.50
2018-09-14T17:55:54.538Z,6.83
2018-09-14T17:58:28.950Z,6.97
2018-09-14T18:01:03.282Z,6.90
2018-09-14T18:03:37.586Z,6.63
2018-09-14T18:06:11.887Z,6.67
2018-09-14T18:08:46.177Z,6.60
2018-09-14T18:11:20.506Z,6.27
2018-09-14T18:13:54.798Z,16.87
2018-09-14T18:16:28.978Z,20.57
2018-09-14T18:19:03.257Z,16.70
2018-09-14T18:21:37.562Z,42.70
2018-09-14T18:24:11.838Z,29.63
2018-09-14T18:26:46.302Z,18.13
2018-09-14T18:29:20.787Z,12.87
2018-09-14T18:31:55.204Z,13.93
2018-09-14T18:34:29.579Z,10.80
2018-09-14T18:37:03.789Z,9.17
2018-09-14T18:39:38.258Z,9.97
2018-09-14T18:42:12.442Z,8.53
2018-09-14T18:44:46.625Z,6.97
2018-09-14T18:47:20.962Z,7.20
2018-09-14T18:49:55.269Z,8.70
2018-09-14T18:52:29.489Z,8.53
2018-09-14T18:55:03.626Z,8.97
2018-09-14T18:57:37.811Z,8.63
2018-09-14T19:00:12.098Z,9.20
2018-09-14T19:02:46.493Z,8.97
2018-09-14T19:05:20.765Z,9.07
2018-09-14T19:07:55.047Z,9.03
2018-09-14T19:10:29.566Z,9.43
2018-09-14T19:13:03.894Z,9.60
2018-09-14T19:15:44.740Z,12.43
2018-09-14T19:41:55.400Z,11.13
2018-09-14T19:44:34.440Z,10.13
2018-09-14T19:47:28.887Z,11.03
2018-09-14T19:50:09.859Z,10.53
2018-09-14T19:53:09.155Z,10.60
2018-09-14T19:55:43.549Z,10.83
2018-09-14T19:58:17.863Z,12.53
2018-09-14T20:00:52.222Z,10.93
2018-09-14T20:06:12.708Z,12.43
2018-09-14T20:08:47.090Z,11.73
2018-09-14T20:11:21.546Z,11.50
2018-09-14T20:13:55.838Z,11.83
2018-09-14T20:16:30.178Z,12.10
2018-09-14T20:19:04.421Z,11.87
2018-09-14T20:21:38.771Z,12.23
2018-09-14T20:24:13.013Z,19.53
2018-09-14T20:26:47.371Z,16.80
2018-09-14T20:29:21.743Z,15.20
2018-09-14T20:31:56.054Z,12.40
2018-09-14T20:34:30.410Z,12.47
2018-09-14T20:37:04.570Z,12.43
2018-09-14T20:39:39.095Z,12.47
2018-09-14T20:42:14.943Z,12.13
2018-09-14T20:44:49.438Z,11.57
2018-09-14T20:47:26.435Z,12.30
2018-09-14T20:50:06.718Z,11.87
2018-09-14T20:52:46.035Z,11.83
2018-09-14T20:55:21.461Z,12.27
2018-09-14T20:57:56.510Z,12.10
2018-09-14T21:00:40.724Z,11.07
2018-09-14T21:06:04.544Z,11.43
2018-09-14T21:08:46.198Z,10.73
2018-09-14T21:11:22.462Z,10.80
2018-09-14T21:13:56.707Z,10.60
2018-09-14T21:16:31.037Z,10.67
2018-09-14T21:19:05.203Z,10.07
2018-09-14T21:21:39.855Z,10.80
2018-09-14T21:24:14.905Z,10.30
2018-09-14T21:26:49.563Z,9.17
2018-09-14T21:29:24.271Z,10.80
2018-09-14T21:31:58.802Z,10.27
2018-09-14T21:34:33.922Z,9.70
2018-09-14T21:37:08.955Z,10.10
2018-09-14T21:39:44.059Z,9.50
2018-09-14T21:42:21.323Z,9.83
2018-09-14T21:44:56.832Z,9.83
2018-09-14T21:47:31.726Z,9.73
2018-09-14T21:50:08.375Z,10.30
2018-09-14T21:52:43.328Z,9.60
2018-09-14T21:55:17.600Z,9.00
2018-09-14T21:57:52.318Z,9.93
2018-09-14T22:00:32.074Z,9.13
2018-09-14T22:03:06.904Z,8.70
2018-09-14T22:05:41.589Z,9.40
2018-09-14T22:08:15.881Z,9.17
2018-09-14T22:10:50.159Z,9.13
2018-09-14T22:13:24.438Z,9.23
2018-09-14T22:16:00.655Z,8.93
2018-09-14T22:18:37.364Z,9.40
2018-09-14T22:21:14.514Z,8.63
2018-09-14T22:23:50.813Z,8.07
2018-09-14T22:26:28.352Z,8.07
2018-09-14T22:29:06.854Z,8.43
2018-09-14T22:31:41.027Z,8.27
2018-09-14T22:34:15.279Z,7.57
2018-09-14T22:36:49.921Z,7.53
2018-09-14T22:39:24.313Z,7.90
2018-09-14T22:41:58.571Z,7.53
2018-09-14T22:44:32.882Z,7.97
2018-09-14T22:47:07.238Z,7.50
2018-09-14T22:49:41.579Z,7.80
2018-09-14T22:52:15.835Z,8.00
2018-09-14T22:54:50.295Z,7.37
2018-09-14T22:57:24.548Z,7.63
2018-09-14T22:59:58.884Z,7.90
2018-09-14T23:02:33.267Z,10.87
2018-09-14T23:05:07.666Z,11.43
2018-09-14T23:07:41.983Z,9.50
2018-09-14T23:10:16.429Z,10.37
2018-09-14T23:12:50.771Z,10.37
2018-09-14T23:15:25.227Z,9.40
2018-09-14T23:17:59.751Z,9.30
2018-09-14T23:20:34.063Z,8.93
2018-09-14T23:23:08.488Z,8.23
2018-09-14T23:25:42.903Z,7.83
2018-09-14T23:28:17.338Z,7.83
2018-09-14T23:30:51.730Z,7.67
2018-09-14T23:33:26.070Z,8.10
2018-09-14T23:36:00.533Z,7.47
2018-09-14T23:38:34.849Z,7.07
2018-09-14T23:41:09.185Z,6.40
2018-09-14T23:43:43.505Z,7.67
2018-09-14T23:46:17.818Z,7.03
2018-09-14T23:48:51.964Z,7.03
2018-09-14T23:51:26.363Z,7.40
2018-09-14T23:54:00.571Z,6.67
2018-09-14T23:56:34.882Z,7.53
2018-09-14T23:59:09.270Z,6.90
